サンクトペテルブルク の空港の天気 - METARとTAF

プルコヴォ空港(サンクトペテルブルグ) ( ULLI / LED ) - ロシア サンクトペテルブルク
飛行場実況気象(Metar)
観測時間08/17 06:00 MSK (08/17 03:00 UTC)
風向・風速東南東 2m/s
視程10km以上
天気現象
なし
気温16℃
湿度77%
気圧1022hPa
METARULLI 170300Z 12002MPS 080V170 CAVOK 16/12 Q1022 R10R/090060 NOSIG
過去の天気等 Google飛行場航空写真 Wunderground天気予報

過去48時間のMETAR

飛行場予報(TAF)
発表時間: 8/17 04:56 MSK (8/17 01:56 UTC)
予報対象時間: 17日6時 MSK ~ 18日6時 MSK
風向・風速南南東 3m/s 瞬間風速 8m/s
視程6,000m
全天の8割程度の雲 雲底高度 520m
17日6時 MSK ~ 17日9時 MSK に一時的に
視程3,100m
天気現象弱いしゅう雨 もや
全天の8割程度の雲 雲底高度 340m
全天の8割程度の積乱雲 雲底高度 460m
17日9時 MSK ~ 17日24時 MSK に一時的に
風向・風速不定 16m/s
視程1,200m
天気現象雷雨ひょう
全天の8割程度の雲 雲底高度 120m
全天の8割程度の積乱雲 雲底高度 460m
18日0時 MSK ~ 18日6時 MSK に一時的に
風向・風速南南西 3m/s 瞬間風速 8m/s
視程2,100m
天気現象弱いしゅう雨 もや
全天の8割程度の雲 雲底高度 120m
全天の8割程度の積乱雲 雲底高度 460m
TAF ULLI 170156Z 1703/1803 16003G08MPS 6000 BKN017
TEMPO 1703/1706 3100 -SHRA BR BKN011 BKN015CB
TEMPO 1706/1721 VRB16MPS 1200 TSRAGR BKN004 BKN015CB
TEMPO 1721/1803 20003G08MPS 2100 -SHRA BR BKN004 BKN015CB